Time;durP1;ratioP1;P1;durP2;ratioP2;P2;SDS_P1;SDS_P2;PMS_P1;PMS_P2;Temp;Humidity;BMP_temperature;BMP_pressure;BME280_temperature;BME280_humidity;BME280_pressure;Samples;Min_cycle;Max_cycle;Signal;HPM_P1;HPM_P2
2023/01/22 00:00:01;;;;;;;;;;;17.10;43.60;;;;;;5001665;28;19913;-53
2023/01/22 00:02:26;;;;;;;;;;;17.00;43.60;;;;;;5013442;28;19913;-52
2023/01/22 00:04:52;;;;;;;;;;;17.00;43.80;;;;;;4998393;28;19918;-53
2023/01/22 00:07:17;;;;;;;;;;;17.00;43.70;;;;;;5001092;28;19979;-52
2023/01/22 00:09:42;;;;;;;;;;;17.00;43.60;;;;;;4996287;28;19998;-52
2023/01/22 00:12:08;;;;;;;;;;;17.00;43.50;;;;;;5009605;28;19917;-53
2023/01/22 00:14:33;;;;;;;;;;;17.00;43.60;;;;;;5006744;28;19913;-53
2023/01/22 00:16:59;;;;;;;;;;;16.90;43.60;;;;;;5000670;28;20362;-53
2023/01/22 00:19:24;;;;;;;;;;;16.90;43.80;;;;;;5012074;28;19936;-53
2023/01/22 00:21:50;;;;;;;;;;;16.90;43.80;;;;;;5004200;28;19910;-51
2023/01/22 00:24:15;;;;;;;;;;;16.90;43.60;;;;;;4996067;28;19925;-52
2023/01/22 00:26:41;;;;;;;;;;;16.80;43.70;;;;;;5009725;28;19921;-52
2023/01/22 00:29:06;;;;;;;;;;;16.80;43.60;;;;;;5012977;28;19913;-53
2023/01/22 00:31:32;;;;;;;;;;;16.80;43.80;;;;;;5001773;28;19913;-52
2023/01/22 00:33:57;;;;;;;;;;;16.80;43.60;;;;;;5003068;28;19945;-52
2023/01/22 00:36:22;;;;;;;;;;;16.80;43.80;;;;;;5011364;28;19949;-53
2023/01/22 00:38:48;;;;;;;;;;;16.80;43.60;;;;;;5001396;28;19918;-52
2023/01/22 00:41:14;;;;;;;;;;;16.80;43.60;;;;;;4997574;28;19921;-52
2023/01/22 00:43:39;;;;;;;;;;;16.80;43.60;;;;;;4995785;28;20338;-52
2023/01/22 00:46:08;;;;;;;;;;;16.70;43.60;;;;;;4997555;28;20008;-53
2023/01/22 00:48:34;;;;;;;;;;;16.70;43.70;;;;;;5005193;28;19921;-52
2023/01/22 00:50:59;;;;;;;;;;;16.70;43.70;;;;;;5012510;28;20376;-52
2023/01/22 00:53:25;;;;;;;;;;;16.60;43.80;;;;;;5003094;28;19917;-52
2023/01/22 00:55:54;;;;;;;;;;;16.60;43.60;;;;;;5009213;28;19914;-52
2023/01/22 00:58:19;;;;;;;;;;;16.60;43.60;;;;;;5012974;28;19913;-53
2023/01/22 01:00:45;;;;;;;;;;;16.60;43.50;;;;;;4994880;28;19914;-53
2023/01/22 01:03:26;;;;;;;;;;;16.50;43.60;;;;;;5026523;28;19928;-52
2023/01/22 01:06:01;;;;;;;;;;;16.60;43.60;;;;;;5013784;28;20476;-53
2023/01/22 01:08:27;;;;;;;;;;;16.60;43.60;;;;;;5004901;28;19929;-52
2023/01/22 01:10:56;;;;;;;;;;;16.50;43.80;;;;;;5013998;28;20014;-53
2023/01/22 01:13:21;;;;;;;;;;;16.40;43.90;;;;;;5005237;28;20329;-52
2023/01/22 01:15:46;;;;;;;;;;;16.40;44.00;;;;;;4995161;28;19944;-53
2023/01/22 01:18:13;;;;;;;;;;;16.50;43.90;;;;;;5000749;28;20384;-53
2023/01/22 01:20:39;;;;;;;;;;;16.50;43.80;;;;;;5010706;28;20377;-53
2023/01/22 01:23:04;;;;;;;;;;;16.50;43.80;;;;;;4993705;28;19914;-52
2023/01/22 01:25:30;;;;;;;;;;;16.40;43.90;;;;;;5002596;28;19917;-53
2023/01/22 01:27:55;;;;;;;;;;;16.40;43.90;;;;;;4994572;28;19921;-53
2023/01/22 01:30:20;;;;;;;;;;;16.30;43.80;;;;;;4994062;28;19965;-52
2023/01/22 01:32:46;;;;;;;;;;;16.30;43.90;;;;;;5006334;28;19914;-53
2023/01/22 01:35:11;;;;;;;;;;;16.30;44.00;;;;;;5001756;28;19945;-52
2023/01/22 01:37:37;;;;;;;;;;;16.30;44.00;;;;;;5005406;28;19984;-53
2023/01/22 01:40:02;;;;;;;;;;;16.20;44.10;;;;;;5006590;28;19925;-53
2023/01/22 01:42:33;;;;;;;;;;;16.20;44.00;;;;;;5013082;28;19920;-53
2023/01/22 01:45:16;;;;;;;;;;;16.20;43.90;;;;;;4997967;28;20001;-54
2023/01/22 01:47:42;;;;;;;;;;;16.20;44.00;;;;;;5011156;28;20048;-52
2023/01/22 01:50:07;;;;;;;;;;;16.20;44.10;;;;;;5006707;28;19969;-53
2023/01/22 01:52:33;;;;;;;;;;;16.20;44.00;;;;;;5010511;28;19917;-54
2023/01/22 01:54:58;;;;;;;;;;;16.20;44.00;;;;;;5013172;28;19913;-54
2023/01/22 01:57:25;;;;;;;;;;;16.20;44.00;;;;;;5010867;28;19914;-54
2023/01/22 01:59:51;;;;;;;;;;;16.10;44.10;;;;;;5044976;28;19910;-54
2023/01/22 02:02:18;;;;;;;;;;;16.10;43.90;;;;;;4996795;28;19914;-54
2023/01/22 02:04:44;;;;;;;;;;;16.10;44.10;;;;;;4993843;28;19914;-54
2023/01/22 02:07:09;;;;;;;;;;;16.10;44.10;;;;;;4994599;28;19962;-54
2023/01/22 02:09:34;;;;;;;;;;;16.10;44.10;;;;;;5005849;28;20298;-54
2023/01/22 02:12:00;;;;;;;;;;;16.10;43.90;;;;;;5029188;28;20267;-54
2023/01/22 02:14:26;;;;;;;;;;;16.20;43.90;;;;;;5013311;28;19910;-54
2023/01/22 02:17:01;;;;;;;;;;;16.20;43.70;;;;;;5011582;28;20039;-54
2023/01/22 02:19:26;;;;;;;;;;;16.30;43.40;;;;;;5002000;28;19920;-54
2023/01/22 02:21:52;;;;;;;;;;;16.60;43.50;;;;;;5010761;28;20288;-52
2023/01/22 02:24:17;;;;;;;;;;;16.90;43.10;;;;;;5004101;28;19928;-53
2023/01/22 02:26:43;;;;;;;;;;;17.20;42.50;;;;;;5010358;28;19960;-53
2023/01/22 02:29:09;;;;;;;;;;;17.40;42.00;;;;;;5009088;28;19917;-54
2023/01/22 02:31:35;;;;;;;;;;;17.70;41.40;;;;;;5002329;28;19913;-52
2023/01/22 02:34:04;;;;;;;;;;;18.30;40.60;;;;;;5001933;28;19971;-53
2023/01/22 02:36:30;;;;;;;;;;;18.80;39.70;;;;;;4998653;28;19913;-52
2023/01/22 02:38:55;;;;;;;;;;;19.00;39.00;;;;;;5001481;28;19914;-51
2023/01/22 02:41:21;;;;;;;;;;;19.00;39.10;;;;;;5002403;28;20354;-52
2023/01/22 02:43:46;;;;;;;;;;;18.80;39.30;;;;;;5007194;28;20417;-52
2023/01/22 02:46:12;;;;;;;;;;;18.60;39.70;;;;;;4994693;28;19922;-53
2023/01/22 02:48:37;;;;;;;;;;;18.40;40.00;;;;;;5007883;28;19917;-53
2023/01/22 02:51:03;;;;;;;;;;;18.40;40.30;;;;;;5002405;28;19949;-53
2023/01/22 02:53:28;;;;;;;;;;;18.30;40.30;;;;;;4998595;28;19914;-53
2023/01/22 02:55:54;;;;;;;;;;;18.30;40.40;;;;;;5006225;28;20019;-52
2023/01/22 02:58:19;;;;;;;;;;;18.20;40.50;;;;;;5010689;28;19913;-53
2023/01/22 03:00:45;;;;;;;;;;;18.20;40.40;;;;;;5012401;28;19909;-53
2023/01/22 03:03:14;;;;;;;;;;;18.20;40.60;;;;;;5000691;28;19996;-53
2023/01/22 03:05:46;;;;;;;;;;;18.10;40.60;;;;;;4992408;28;20048;-53
2023/01/22 03:08:12;;;;;;;;;;;18.10;40.70;;;;;;5005148;28;19913;-53
2023/01/22 03:10:37;;;;;;;;;;;18.10;40.80;;;;;;5012819;28;20005;-53
2023/01/22 03:21:15;;;;;;;;;;;17.80;41.10;;;;;;5009504;28;19920;-52
2023/01/22 03:23:44;;;;;;;;;;;17.80;41.10;;;;;;4999631;28;19929;-53
2023/01/22 03:26:10;;;;;;;;;;;17.70;41.00;;;;;;5008804;28;19936;-52
2023/01/22 03:28:35;;;;;;;;;;;17.70;41.10;;;;;;4996685;28;20009;-53
2023/01/22 03:31:01;;;;;;;;;;;17.70;41.40;;;;;;5002966;28;20028;-52
2023/01/22 03:33:26;;;;;;;;;;;17.70;41.40;;;;;;4998341;28;19921;-52
2023/01/22 03:35:52;;;;;;;;;;;17.70;41.40;;;;;;5008437;28;20008;-53
2023/01/22 03:38:17;;;;;;;;;;;17.70;41.30;;;;;;5008206;28;20012;-53
2023/01/22 03:40:43;;;;;;;;;;;17.70;41.20;;;;;;4998125;28;19924;-52
2023/01/22 03:43:08;;;;;;;;;;;17.80;41.10;;;;;;5015653;28;20326;-53
2023/01/22 03:45:33;;;;;;;;;;;17.80;41.00;;;;;;5002917;28;19922;-52
2023/01/22 03:48:01;;;;;;;;;;;17.80;40.90;;;;;;4996597;28;19918;-53
2023/01/22 03:50:26;;;;;;;;;;;17.90;41.10;;;;;;5007587;28;20077;-52
2023/01/22 03:52:52;;;;;;;;;;;17.90;40.90;;;;;;5001317;28;20077;-52
2023/01/22 03:55:17;;;;;;;;;;;17.90;41.00;;;;;;5015560;28;20019;-53
2023/01/22 03:57:43;;;;;;;;;;;17.80;41.00;;;;;;5012945;28;19948;-52
2023/01/22 04:00:08;;;;;;;;;;;17.70;41.00;;;;;;5009113;28;19914;-52
2023/01/22 04:02:34;;;;;;;;;;;17.70;41.20;;;;;;5046716;28;20433;-53
2023/01/22 04:04:59;;;;;;;;;;;17.60;41.30;;;;;;4996539;28;20294;-52
2023/01/22 04:07:25;;;;;;;;;;;17.50;41.40;;;;;;5011890;28;19913;-53
2023/01/22 04:09:50;;;;;;;;;;;17.50;41.60;;;;;;5010854;28;19914;-52
2023/01/22 04:12:16;;;;;;;;;;;17.40;41.40;;;;;;4997560;28;20042;-52
2023/01/22 04:14:41;;;;;;;;;;;17.30;41.60;;;;;;5013745;28;20011;-53
2023/01/22 04:17:07;;;;;;;;;;;17.30;41.70;;;;;;5003950;28;19921;-52
2023/01/22 04:19:32;;;;;;;;;;;17.20;41.90;;;;;;5008071;28;19918;-53
2023/01/22 04:21:58;;;;;;;;;;;17.20;41.90;;;;;;5014383;28;19914;-52
2023/01/22 04:24:23;;;;;;;;;;;17.30;42.00;;;;;;4997272;28;20032;-52
2023/01/22 04:26:48;;;;;;;;;;;17.30;41.90;;;;;;4995014;28;19961;-52
2023/01/22 04:29:14;;;;;;;;;;;17.30;41.60;;;;;;4999950;28;19917;-54
2023/01/22 04:31:39;;;;;;;;;;;17.40;41.60;;;;;;5005963;28;20374;-54
2023/01/22 04:34:05;;;;;;;;;;;17.50;41.30;;;;;;5015065;28;20280;-52
2023/01/22 04:36:30;;;;;;;;;;;17.60;41.10;;;;;;5041372;28;19913;-52
2023/01/22 04:38:56;;;;;;;;;;;17.70;40.90;;;;;;5015032;28;19917;-52
2023/01/22 04:41:21;;;;;;;;;;;17.70;40.80;;;;;;4995809;28;19914;-54
2023/01/22 04:43:47;;;;;;;;;;;17.70;40.80;;;;;;5007216;28;20278;-51
2023/01/22 04:46:12;;;;;;;;;;;17.70;41.00;;;;;;5011665;28;19917;-54
2023/01/22 04:48:38;;;;;;;;;;;17.60;40.90;;;;;;5011036;28;19914;-52
2023/01/22 04:51:03;;;;;;;;;;;17.50;41.00;;;;;;4999880;28;20405;-53
2023/01/22 04:53:28;;;;;;;;;;;17.50;41.20;;;;;;4995428;28;19925;-53
2023/01/22 04:55:54;;;;;;;;;;;17.40;41.30;;;;;;5007445;28;20373;-53
2023/01/22 04:58:19;;;;;;;;;;;17.40;41.40;;;;;;5000510;28;20436;-52
2023/01/22 05:00:45;;;;;;;;;;;17.40;41.50;;;;;;4995557;28;20429;-53
2023/01/22 05:03:11;;;;;;;;;;;17.30;41.60;;;;;;5003778;28;19917;-52
2023/01/22 05:05:36;;;;;;;;;;;17.20;41.60;;;;;;4997235;28;19914;-52
2023/01/22 05:08:02;;;;;;;;;;;17.20;41.80;;;;;;5013128;28;19936;-52
2023/01/22 05:10:27;;;;;;;;;;;17.20;41.90;;;;;;5013077;28;20317;-53
2023/01/22 05:12:53;;;;;;;;;;;17.20;41.80;;;;;;5009742;28;19968;-53
2023/01/22 05:15:19;;;;;;;;;;;17.20;41.80;;;;;;4998199;28;19940;-52
2023/01/22 05:17:44;;;;;;;;;;;17.20;41.70;;;;;;4994908;28;19937;-52
2023/01/22 05:20:10;;;;;;;;;;;17.30;41.60;;;;;;5005426;28;19917;-53
2023/01/22 05:22:35;;;;;;;;;;;17.40;41.50;;;;;;5011563;28;20342;-52
2023/01/22 05:25:00;;;;;;;;;;;17.40;41.20;;;;;;5008064;28;20314;-52
2023/01/22 05:27:26;;;;;;;;;;;17.50;41.10;;;;;;5012821;28;19917;-52
2023/01/22 05:29:51;;;;;;;;;;;17.60;40.90;;;;;;5011573;28;19920;-52
2023/01/22 05:32:17;;;;;;;;;;;17.60;40.80;;;;;;4997798;28;19937;-53
2023/01/22 05:34:42;;;;;;;;;;;17.60;40.70;;;;;;5012827;28;19917;-52
2023/01/22 05:37:08;;;;;;;;;;;17.70;40.70;;;;;;5009656;28;20011;-52
2023/01/22 05:39:33;;;;;;;;;;;17.70;40.80;;;;;;4996272;28;19917;-52
2023/01/22 05:41:59;;;;;;;;;;;17.60;40.80;;;;;;5011062;28;20051;-52
2023/01/22 05:44:25;;;;;;;;;;;17.60;40.80;;;;;;4995421;28;19924;-53
2023/01/22 05:46:50;;;;;;;;;;;17.50;41.00;;;;;;4993694;28;19914;-53
2023/01/22 05:49:16;;;;;;;;;;;17.50;41.20;;;;;;5001259;28;19914;-53
2023/01/22 05:51:41;;;;;;;;;;;17.40;41.20;;;;;;5011582;28;19917;-52
2023/01/22 05:54:06;;;;;;;;;;;17.40;41.30;;;;;;5003356;28;20004;-53
2023/01/22 05:56:32;;;;;;;;;;;17.30;41.30;;;;;;4995080;28;19952;-52
2023/01/22 05:58:57;;;;;;;;;;;17.30;41.40;;;;;;5011435;28;20562;-53
2023/01/22 06:01:23;;;;;;;;;;;17.30;41.40;;;;;;5006594;28;19921;-52
2023/01/22 06:03:48;;;;;;;;;;;17.30;41.40;;;;;;4993620;28;19914;-52
2023/01/22 06:06:14;;;;;;;;;;;17.30;41.40;;;;;;4994616;28;19925;-53
2023/01/22 06:08:39;;;;;;;;;;;17.40;41.40;;;;;;5006795;28;20394;-53
2023/01/22 06:11:08;;;;;;;;;;;17.40;41.30;;;;;;4992969;28;19910;-53
2023/01/22 06:13:34;;;;;;;;;;;17.40;41.10;;;;;;5002656;28;20003;-53
2023/01/22 06:15:59;;;;;;;;;;;17.50;41.00;;;;;;5012781;28;19960;-53
2023/01/22 06:18:25;;;;;;;;;;;17.50;40.90;;;;;;5009667;28;19920;-53
2023/01/22 06:20:50;;;;;;;;;;;17.50;40.90;;;;;;5009142;28;20370;-53
2023/01/22 06:23:16;;;;;;;;;;;17.50;41.00;;;;;;5006452;28;19917;-53
2023/01/22 06:25:41;;;;;;;;;;;17.50;40.90;;;;;;5010868;28;19926;-53
2023/01/22 06:28:07;;;;;;;;;;;17.50;40.90;;;;;;5012274;28;19960;-53
2023/01/22 06:30:32;;;;;;;;;;;17.50;41.00;;;;;;5009993;28;19924;-52
2023/01/22 06:32:58;;;;;;;;;;;17.50;41.10;;;;;;5012338;28;19920;-54
2023/01/22 06:35:23;;;;;;;;;;;17.40;41.00;;;;;;4999201;28;19921;-54
2023/01/22 06:37:49;;;;;;;;;;;17.40;41.30;;;;;;4997122;28;19918;-54
2023/01/22 06:40:14;;;;;;;;;;;17.30;41.30;;;;;;4993404;28;20399;-54
2023/01/22 06:42:39;;;;;;;;;;;17.30;41.50;;;;;;5009760;28;20293;-54
2023/01/22 06:45:05;;;;;;;;;;;17.20;41.40;;;;;;5007830;28;19993;-54
2023/01/22 06:47:31;;;;;;;;;;;17.20;41.50;;;;;;5007004;28;19918;-52
2023/01/22 06:49:56;;;;;;;;;;;17.20;41.60;;;;;;5013236;28;19910;-52
2023/01/22 06:52:22;;;;;;;;;;;17.20;41.40;;;;;;5011302;28;20321;-52
2023/01/22 06:54:47;;;;;;;;;;;17.20;41.30;;;;;;5005454;28;19914;-53
2023/01/22 06:57:12;;;;;;;;;;;17.20;41.40;;;;;;4998349;28;19956;-52
2023/01/22 06:59:38;;;;;;;;;;;17.30;41.20;;;;;;5012675;28;19913;-53
2023/01/22 07:02:03;;;;;;;;;;;17.40;41.10;;;;;;5011793;28;20060;-52
2023/01/22 07:04:29;;;;;;;;;;;17.50;40.90;;;;;;5009643;28;19925;-53
2023/01/22 07:06:54;;;;;;;;;;;17.50;40.90;;;;;;4999103;28;19921;-52
2023/01/22 07:09:20;;;;;;;;;;;17.60;40.80;;;;;;4992589;28;19914;-52
2023/01/22 07:11:45;;;;;;;;;;;17.60;40.60;;;;;;5024267;28;20358;-54
2023/01/22 07:14:11;;;;;;;;;;;17.60;40.60;;;;;;4995210;28;20378;-52
2023/01/22 07:16:36;;;;;;;;;;;17.60;40.50;;;;;;5002840;28;19914;-52
2023/01/22 07:19:02;;;;;;;;;;;17.60;40.50;;;;;;4999780;28;19914;-52
2023/01/22 07:21:27;;;;;;;;;;;17.50;40.60;;;;;;5006895;28;19961;-54
2023/01/22 07:23:53;;;;;;;;;;;17.50;40.80;;;;;;4992514;28;20382;-54
2023/01/22 07:26:18;;;;;;;;;;;17.40;40.80;;;;;;4994866;28;19968;-54
2023/01/22 07:28:44;;;;;;;;;;;17.40;40.90;;;;;;5033462;28;19921;-52
2023/01/22 07:31:09;;;;;;;;;;;17.30;40.90;;;;;;5001027;28;19964;-52
2023/01/22 07:33:35;;;;;;;;;;;17.30;41.10;;;;;;4999969;28;20370;-52
2023/01/22 07:36:00;;;;;;;;;;;17.30;41.20;;;;;;5002134;28;19921;-52
2023/01/22 07:38:26;;;;;;;;;;;17.20;41.20;;;;;;5006274;28;19913;-54
2023/01/22 07:40:52;;;;;;;;;;;17.20;41.30;;;;;;5002253;28;19960;-55
2023/01/22 07:43:17;;;;;;;;;;;17.20;41.20;;;;;;4996551;28;19960;-54
2023/01/22 07:45:43;;;;;;;;;;;17.20;41.20;;;;;;4997712;28;20008;-54
2023/01/22 07:48:09;;;;;;;;;;;17.20;41.20;;;;;;5007240;28;19917;-54
2023/01/22 07:50:35;;;;;;;;;;;17.30;41.10;;;;;;5011857;28;19913;-53
2023/01/22 07:53:01;;;;;;;;;;;17.30;40.90;;;;;;5001217;28;19913;-54
2023/01/22 07:55:26;;;;;;;;;;;17.40;40.80;;;;;;4993518;28;19996;-54
2023/01/22 07:58:03;;;;;;;;;;;17.50;40.80;;;;;;5013760;28;19920;-54
2023/01/22 08:00:28;;;;;;;;;;;17.60;40.60;;;;;;5010650;28;19920;-54
2023/01/22 08:02:54;;;;;;;;;;;17.60;40.50;;;;;;5008012;28;19918;-52
2023/01/22 08:05:19;;;;;;;;;;;17.60;40.50;;;;;;5027993;28;19910;-53
2023/01/22 08:07:45;;;;;;;;;;;17.60;40.50;;;;;;5007365;28;20292;-54
2023/01/22 08:10:10;;;;;;;;;;;17.60;40.50;;;;;;5011231;28;19953;-52
2023/01/22 08:12:40;;;;;;;;;;;17.70;40.40;;;;;;5014301;28;19920;-52
2023/01/22 08:15:05;;;;;;;;;;;17.70;40.40;;;;;;5016226;28;19913;-52
2023/01/22 08:17:31;;;;;;;;;;;17.70;40.50;;;;;;5001002;28;19921;-52
2023/01/22 08:19:56;;;;;;;;;;;17.70;40.50;;;;;;5009339;28;19914;-54
2023/01/22 08:22:21;;;;;;;;;;;17.70;40.70;;;;;;5011201;28;19921;-52
2023/01/22 08:24:47;;;;;;;;;;;17.70;40.80;;;;;;5010321;28;19964;-54
2023/01/22 08:27:12;;;;;;;;;;;17.70;40.90;;;;;;4997816;28;19929;-54
2023/01/22 08:29:38;;;;;;;;;;;17.70;40.90;;;;;;5006832;28;19919;-54
2023/01/22 08:32:05;;;;;;;;;;;17.70;40.80;;;;;;5007833;28;19933;-54
2023/01/22 08:34:30;;;;;;;;;;;17.80;40.80;;;;;;5014855;28;20433;-52
2023/01/22 08:36:55;;;;;;;;;;;17.90;40.70;;;;;;5011416;28;19913;-54
2023/01/22 08:39:21;;;;;;;;;;;17.90;40.70;;;;;;5006299;28;19932;-52
2023/01/22 08:41:46;;;;;;;;;;;18.00;40.70;;;;;;5002554;28;20396;-52
2023/01/22 08:44:12;;;;;;;;;;;17.90;40.70;;;;;;5007780;28;19936;-52
2023/01/22 08:46:39;;;;;;;;;;;17.90;40.90;;;;;;5006952;28;19917;-52
2023/01/22 08:49:05;;;;;;;;;;;17.80;40.90;;;;;;5002814;28;20012;-51
2023/01/22 08:51:31;;;;;;;;;;;17.90;41.00;;;;;;5006177;28;20490;-52
2023/01/22 08:53:56;;;;;;;;;;;17.90;41.00;;;;;;5008911;28;20012;-53
2023/01/22 08:56:22;;;;;;;;;;;17.90;41.00;;;;;;5007184;28;20259;-52
2023/01/22 08:58:49;;;;;;;;;;;17.90;41.00;;;;;;4999516;28;19913;-52
2023/01/22 09:01:15;;;;;;;;;;;17.90;41.00;;;;;;5003513;28;19932;-52
2023/01/22 09:03:42;;;;;;;;;;;17.90;41.00;;;;;;5005310;28;19921;-53
2023/01/22 09:06:07;;;;;;;;;;;18.00;41.00;;;;;;5002735;28;19918;-52
2023/01/22 09:08:32;;;;;;;;;;;17.90;41.00;;;;;;5005607;28;19918;-54
2023/01/22 09:10:58;;;;;;;;;;;18.20;40.80;;;;;;5004698;28;19917;-54
2023/01/22 09:13:23;;;;;;;;;;;18.90;39.80;;;;;;5004288;28;20036;-54
2023/01/22 09:15:49;;;;;;;;;;;19.60;38.50;;;;;;4994335;28;19924;-53
2023/01/22 09:18:14;;;;;;;;;;;20.20;37.50;;;;;;5001309;28;20390;-55
2023/01/22 09:20:40;;;;;;;;;;;20.70;36.70;;;;;;5009029;28;20285;-52
2023/01/22 09:23:06;;;;;;;;;;;20.90;36.30;;;;;;4997816;28;20379;-53
2023/01/22 09:25:31;;;;;;;;;;;21.10;36.10;;;;;;5000086;28;19925;-54
2023/01/22 09:27:58;;;;;;;;;;;21.10;36.70;;;;;;5007393;28;19913;-54
2023/01/22 09:30:25;;;;;;;;;;;21.20;36.00;;;;;;5008330;28;19917;-54
2023/01/22 09:32:50;;;;;;;;;;;21.30;35.90;;;;;;5005263;28;19914;-54
2023/01/22 09:35:16;;;;;;;;;;;21.50;35.80;;;;;;5012580;28;20292;-53
2023/01/22 09:37:41;;;;;;;;;;;21.60;35.50;;;;;;5001937;28;20346;-52
2023/01/22 09:40:10;;;;;;;;;;;21.70;35.10;;;;;;5001630;28;20290;-54
2023/01/22 09:42:36;;;;;;;;;;;21.80;35.20;;;;;;5038238;28;19913;-54
2023/01/22 09:45:11;;;;;;;;;;;21.90;35.10;;;;;;5021979;28;19967;-52
2023/01/22 09:47:39;;;;;;;;;;;21.90;35.00;;;;;;5009417;28;19922;-53
2023/01/22 09:50:17;;;;;;;;;;;22.10;35.10;;;;;;5010823;28;19921;-54
2023/01/22 09:52:43;;;;;;;;;;;22.10;35.10;;;;;;5013161;28;19914;-54
2023/01/22 09:55:12;;;;;;;;;;;22.20;35.20;;;;;;5009762;28;19923;-53
2023/01/22 09:57:43;;;;;;;;;;;22.20;35.10;;;;;;4999912;28;20452;-54
2023/01/22 10:00:18;;;;;;;;;;;22.30;35.10;;;;;;5012875;28;19921;-54
2023/01/22 10:02:46;;;;;;;;;;;22.30;35.10;;;;;;5042753;28;19922;-53
2023/01/22 10:05:26;;;;;;;;;;;22.30;35.10;;;;;;5033529;28;19914;-54
2023/01/22 10:08:21;;;;;;;;;;;22.40;35.20;;;;;;5009451;28;19921;-54
2023/01/22 10:10:46;;;;;;;;;;;22.40;35.30;;;;;;5009579;28;19917;-54
2023/01/22 10:13:19;;;;;;;;;;;22.40;35.30;;;;;;5004473;28;20447;-54
2023/01/22 10:15:44;;;;;;;;;;;22.40;35.40;;;;;;5000067;28;19917;-53
2023/01/22 10:18:33;;;;;;;;;;;22.40;35.40;;;;;;5009390;28;19918;-54
2023/01/22 10:20:59;;;;;;;;;;;22.40;35.40;;;;;;5013013;28;19917;-54
2023/01/22 10:23:25;;;;;;;;;;;22.40;35.30;;;;;;5009866;28;19929;-54
2023/01/22 10:25:54;;;;;;;;;;;22.50;35.40;;;;;;5011671;28;19964;-53
2023/01/22 10:28:22;;;;;;;;;;;22.60;35.20;;;;;;5037471;28;19917;-54
2023/01/22 10:30:48;;;;;;;;;;;22.60;35.40;;;;;;5007686;28;19921;-53
2023/01/22 10:33:17;;;;;;;;;;;22.60;35.40;;;;;;4993485;28;20309;-53
2023/01/22 10:35:45;;;;;;;;;;;22.60;36.20;;;;;;5027686;28;19963;-55
2023/01/22 10:38:20;;;;;;;;;;;22.60;35.60;;;;;;5008336;28;19917;-55
2023/01/22 10:40:47;;;;;;;;;;;22.70;35.60;;;;;;5010201;28;20386;-54
2023/01/22 10:43:13;;;;;;;;;;;22.70;35.40;;;;;;5005098;28;20028;-54
2023/01/22 10:45:51;;;;;;;;;;;22.70;35.40;;;;;;4998372;28;20313;-54
2023/01/22 10:48:17;;;;;;;;;;;22.70;35.20;;;;;;5000447;28;19918;-54
2023/01/22 10:50:43;;;;;;;;;;;22.80;35.20;;;;;;5004679;28;19927;-54
2023/01/22 10:53:35;;;;;;;;;;;22.80;35.20;;;;;;5032730;28;19928;-54
2023/01/22 10:56:01;;;;;;;;;;;22.90;35.30;;;;;;5005710;28;19913;-54
2023/01/22 10:58:31;;;;;;;;;;;22.80;35.20;;;;;;5000424;28;19909;-53
2023/01/22 11:00:57;;;;;;;;;;;22.90;35.30;;;;;;5006276;28;19922;-54
2023/01/22 11:03:27;;;;;;;;;;;22.80;35.50;;;;;;5003880;28;19931;-54
2023/01/22 11:06:13;;;;;;;;;;;22.80;35.60;;;;;;5000302;28;19918;-54
2023/01/22 11:08:41;;;;;;;;;;;22.80;35.60;;;;;;5004241;28;19918;-54
2023/01/22 11:11:07;;;;;;;;;;;22.90;35.80;;;;;;5005127;28;19914;-54
2023/01/22 11:13:43;;;;;;;;;;;22.90;35.90;;;;;;5051427;28;19963;-54
2023/01/22 11:16:11;;;;;;;;;;;22.90;35.90;;;;;;5013209;28;19929;-54
2023/01/22 11:18:37;;;;;;;;;;;23.00;35.90;;;;;;5031307;28;19914;-54
2023/01/22 11:21:13;;;;;;;;;;;22.90;35.90;;;;;;5007644;28;20592;-54
2023/01/22 11:24:01;;;;;;;;;;;23.00;35.90;;;;;;5024540;28;19928;-54
2023/01/22 11:26:47;;;;;;;;;;;23.00;35.90;;;;;;5000590;28;20008;-53
2023/01/22 11:29:38;;;;;;;;;;;23.00;35.90;;;;;;4996330;28;19914;-54
2023/01/22 11:32:10;;;;;;;;;;;23.00;35.90;;;;;;5027598;28;20665;-52
2023/01/22 11:34:39;;;;;;;;;;;23.10;36.00;;;;;;4999359;28;20403;-54
2023/01/22 11:37:28;;;;;;;;;;;23.00;35.90;;;;;;5002251;28;20358;-55
2023/01/22 11:40:12;;;;;;;;;;;23.00;36.20;;;;;;5013964;28;20001;-54
2023/01/22 11:42:55;;;;;;;;;;;23.00;36.00;;;;;;5003539;28;20302;-54
2023/01/22 11:45:39;;;;;;;;;;;23.10;36.10;;;;;;5006379;28;19920;-54
2023/01/22 11:48:10;;;;;;;;;;;23.10;36.10;;;;;;4996737;28;20456;-54
2023/01/22 11:50:39;;;;;;;;;;;23.20;36.10;;;;;;5005050;28;19909;-55
2023/01/22 11:53:07;;;;;;;;;;;23.20;36.10;;;;;;5012713;28;19917;-55
2023/01/22 11:55:32;;;;;;;;;;;23.20;36.10;;;;;;5005753;28;19956;-54
2023/01/22 11:57:58;;;;;;;;;;;23.30;36.20;;;;;;5002565;28;20401;-54
2023/01/22 12:00:42;;;;;;;;;;;23.30;36.20;;;;;;5002736;28;20437;-54
2023/01/22 12:03:10;;;;;;;;;;;23.30;36.20;;;;;;5004040;28;20397;-54
2023/01/22 12:05:40;;;;;;;;;;;23.30;36.20;;;;;;5000529;28;19913;-54
2023/01/22 12:08:24;;;;;;;;;;;23.30;36.20;;;;;;5002767;28;20365;-52
2023/01/22 12:11:05;;;;;;;;;;;23.40;36.30;;;;;;5010758;28;20008;-54
2023/01/22 12:13:44;;;;;;;;;;;23.40;36.30;;;;;;5014972;28;19915;-54
2023/01/22 12:16:25;;;;;;;;;;;23.40;36.30;;;;;;5042432;28;19917;-53
2023/01/22 12:18:53;;;;;;;;;;;23.40;36.30;;;;;;5040054;28;20378;-55
2023/01/22 12:21:45;;;;;;;;;;;23.50;36.40;;;;;;4996475;28;20014;-53
2023/01/22 12:24:23;;;;;;;;;;;23.50;36.40;;;;;;5008532;28;19943;-53
2023/01/22 12:26:55;;;;;;;;;;;23.50;36.40;;;;;;5003172;28;19926;-53
2023/01/22 12:29:22;;;;;;;;;;;23.50;36.30;;;;;;5000096;28;19993;-53
2023/01/22 12:31:49;;;;;;;;;;;23.50;36.30;;;;;;5006524;28;19960;-53
2023/01/22 12:34:41;;;;;;;;;;;23.50;36.30;;;;;;5005887;28;19917;-53
2023/01/22 12:37:06;;;;;;;;;;;23.50;36.40;;;;;;4996579;28;20374;-53
2023/01/22 12:39:37;;;;;;;;;;;23.50;36.30;;;;;;5014195;28;19909;-53
2023/01/22 12:42:14;;;;;;;;;;;23.50;36.40;;;;;;5035829;28;20016;-52
2023/01/22 12:44:39;;;;;;;;;;;23.60;36.40;;;;;;5034501;28;20001;-52
2023/01/22 12:47:23;;;;;;;;;;;23.50;36.40;;;;;;5011986;28;19923;-54
2023/01/22 12:49:49;;;;;;;;;;;23.60;36.30;;;;;;5032959;28;19913;-53
2023/01/22 12:52:34;;;;;;;;;;;23.70;36.30;;;;;;5010565;28;19925;-53
2023/01/22 12:55:00;;;;;;;;;;;23.70;36.20;;;;;;5004263;28;20370;-53
2023/01/22 12:57:34;;;;;;;;;;;23.70;36.00;;;;;;5004216;28;19921;-53
2023/01/22 13:00:07;;;;;;;;;;;23.70;36.10;;;;;;5003458;28;19925;-53
2023/01/22 13:02:37;;;;;;;;;;;23.70;36.10;;;;;;4999807;28;19949;-52
2023/01/22 13:05:09;;;;;;;;;;;23.60;36.20;;;;;;5037564;28;20293;-52
2023/01/22 13:07:35;;;;;;;;;;;23.70;36.40;;;;;;5010408;28;19925;-52
2023/01/22 13:10:19;;;;;;;;;;;23.70;36.40;;;;;;5009912;28;19913;-53
2023/01/22 13:12:46;;;;;;;;;;;23.70;36.40;;;;;;5013110;28;19920;-53
2023/01/22 13:15:36;;;;;;;;;;;23.70;36.30;;;;;;4999713;28;19921;-52
2023/01/22 13:18:02;;;;;;;;;;;23.70;36.30;;;;;;5014901;28;19933;-52
2023/01/22 13:20:28;;;;;;;;;;;23.70;36.40;;;;;;5007529;28;20477;-53
2023/01/22 13:22:54;;;;;;;;;;;23.80;36.40;;;;;;5002848;28;19917;-52
2023/01/22 13:25:24;;;;;;;;;;;23.80;36.40;;;;;;4999654;28;20397;-52
2023/01/22 13:27:49;;;;;;;;;;;23.80;36.40;;;;;;4994706;28;19918;-54
2023/01/22 13:30:16;;;;;;;;;;;23.80;36.50;;;;;;5001636;28;19925;-54
2023/01/22 13:32:41;;;;;;;;;;;23.80;36.50;;;;;;5013697;28;19909;-53
2023/01/22 13:35:08;;;;;;;;;;;23.70;36.50;;;;;;5003831;28;19913;-53
2023/01/22 13:37:34;;;;;;;;;;;23.50;36.80;;;;;;5011717;28;19928;-53
2023/01/22 13:40:29;;;;;;;;;;;23.30;37.80;;;;;;5005131;28;20013;-52
2023/01/22 13:42:54;;;;;;;;;;;23.20;37.30;;;;;;5013361;28;19971;-54
2023/01/22 13:45:30;;;;;;;;;;;23.20;37.20;;;;;;5000915;28;20361;-53
2023/01/22 13:47:57;;;;;;;;;;;23.40;37.10;;;;;;5029920;28;19919;-54
2023/01/22 13:50:26;;;;;;;;;;;23.50;36.90;;;;;;5004542;28;20345;-53
2023/01/22 13:52:52;;;;;;;;;;;23.60;37.10;;;;;;5001098;28;19914;-53
2023/01/22 13:55:19;;;;;;;;;;;23.70;36.50;;;;;;5032699;28;19939;-54
2023/01/22 13:57:45;;;;;;;;;;;23.80;36.60;;;;;;5013826;28;20424;-53
2023/01/22 14:00:25;;;;;;;;;;;23.90;36.70;;;;;;5008099;28;19957;-53
2023/01/22 14:02:50;;;;;;;;;;;23.90;36.40;;;;;;5000035;28;19949;-53
2023/01/22 14:05:20;;;;;;;;;;;23.90;36.40;;;;;;5000923;28;20412;-56
2023/01/22 14:07:45;;;;;;;;;;;23.90;36.60;;;;;;5000696;28;20012;-54
2023/01/22 14:10:11;;;;;;;;;;;23.90;36.60;;;;;;4993776;28;20571;-52
2023/01/22 14:12:36;;;;;;;;;;;23.90;36.40;;;;;;4998093;28;19910;-52
2023/01/22 14:15:11;;;;;;;;;;;24.00;36.40;;;;;;5007298;28;19993;-55
2023/01/22 14:17:37;;;;;;;;;;;24.00;36.40;;;;;;4997690;28;20005;-55
2023/01/22 14:20:03;;;;;;;;;;;24.00;36.40;;;;;;5012772;28;19933;-52
2023/01/22 14:22:28;;;;;;;;;;;24.00;36.40;;;;;;5010070;28;19914;-53
2023/01/22 14:24:54;;;;;;;;;;;24.00;36.40;;;;;;5018265;28;19936;-52
2023/01/22 14:27:24;;;;;;;;;;;24.00;36.30;;;;;;5001810;28;19922;-55